Aérodrome :
LOGIN :

S'inscrire | Disclaimer

   EN    FR    IT 

 










Légende :    VFR   VFR Marginal   IFR   IFR Intensif   IFR Très Intensif
Visi : 
Plafond : 
>= 8 km
>= 3000ft
5 à 8 km
1000 à 3000 ft
1500m à 5 km
500 à 1000 ft
800 à 1500m
200 à 500 ft
< 800m
< 200 ft
Symboles :   Orages  Brouillard  Fortes neiges  Fortes précipitations  Vent > 20 kt
SIGMETs :   Divers  Orages  Givrage  Turbulence  Onde Orograph.  Cendres Volcan.







- Altitude de l'aérodrome : 616 ft
- Code IATA : PUF
- Voir les cartes d'approche


LFBP - Pau

DERNIER METAR :
  • 202030Z AUTO 28016KT 4400 -RADZ BR BKN005 OVC009 12/11 Q1022 TEMPO 26020G35KT 2000 RA

METARs EXPIRÉS :
  • 202000Z AUTO 28016KT 4900 -RADZ BR OVC006 12/11 Q1022 TEMPO 26020G35KT 2000 RA
  • 201930Z AUTO 28015KT 5000 -RA BR OVC006 12/11 Q1022 TEMPO 26020G35KT 2000 RA
  • 201900Z AUTO 27015KT 6000 -RA OVC006/// ///TCU 12/11 Q1021 TEMPO 26020G35KT 2000 RA OVC005
  • 201830Z AUTO 27015KT 5000 -RA BR OVC006 12/11 Q1021 TEMPO 26020G35KT 2000 RA
  • 201800Z AUTO 27015KT 4100 RA BR OVC006/// ///TCU 11/11 Q1021 TEMPO 26020G35KT 2000 RA OVC005

TAF TAF LFBP
Valide du 20 à 18h jusqu'au 21 à 18h UTC


201700Z 2018/2118 26015G25KT 9999 OVC012
TEMPO 2018/2112 2000 RA OVC005
PROB40
TEMPO 2018/2103 26020G35KT
PROB30
TEMPO 2112/2118 4000 -RA OVC005
Pas de NOTAMs connus pour ce terrain.
4 SIGMETs publiés pour la FIR Bordeaux (LFBB) :
 
Onde orographique forte
LFBB SIGMET 8 VALID 202300/210300 LFPW
LFBB BORDEAUX FIR/UIR SEV MTW FCST WI N4245 E00230 - N4215 E00230 - N4230 E00030 - N4300 E00030 - N4245 E00230 SFC/FL350 STNR NC=
Turbulence forte
LFBB SIGMET 7 VALID 202100/202300 LFPW
LFBB BORDEAUX FIR/UIR SEV TURB FCST WI N4400 E00245 - N4215 E00230 - N4245 W00045 - N4300 W00115 - N4400 E00245 SFC/FL130 STNR NC=
Onde orographique forte
LFBB SIGMET 6 VALID 202000/202300 LFPW
LFBB BORDEAUX FIR/UIR SEV MTW FCST WI N4245 E00230 - N4215 E00230 - N4230 E00030 - N4300 E00030 - N4245 E00230 SFC/FL350 STNR NC=
Turbulence forte
LFBB SIGMET 5 VALID 201800/202100 LFPW
LFBB BORDEAUX FIR/UIR SEV TURB FCST WI N4400 E00245 - N4215 E00230 - N4300 W00145 - N4615 W00130 - N4615 W00045 - N4330 W00045 - N4400 E00245 SFC/FL100 STNR NC=



MET'MAP, la Météo Aéronautique d'un coup d'oeil ! - Copyright ORBIFLY Décembre 2007 - Disclaimer

ORBIFLY MET'MAP TEAM :

Programmation & Développement : Alexandra Zaïnal
Conception & Développement : Baudouin d'Aumeries
Co-Programmation & Développement : Marc-Olivier Méhu
Soutien technique & logistique : Manuel Goepfert

Contact : metmap@orbifly.com




SOURCES & CREDITS :

   NOAA